Time;durP1;ratioP1;P1;durP2;ratioP2;P2;SDS_P1;SDS_P2;PMS_P1;PMS_P2;Temp;Humidity;BMP_temperature;BMP_pressure;BME280_temperature;BME280_humidity;BME280_pressure;Samples;Min_cycle;Max_cycle;Signal;HPM_P1;HPM_P2
2021/08/27 00:02:26;;;;;;;4.43;3.30;;;13.50;99.90;;;;;;5100830;28;20629;-93
2021/08/27 00:04:53;;;;;;;4.90;3.70;;;13.60;99.90;;;;;;5083951;28;20670;-92
2021/08/27 00:07:20;;;;;;;5.40;3.37;;;13.70;99.90;;;;;;5068472;28;20668;-91
2021/08/27 00:09:47;;;;;;;4.87;3.20;;;13.70;99.90;;;;;;5078557;28;20686;-91
2021/08/27 00:12:14;;;;;;;4.90;3.77;;;13.80;99.90;;;;;;5072628;28;20631;-92
2021/08/27 00:14:44;;;;;;;6.13;3.43;;;13.80;99.90;;;;;;5077016;28;20984;-93
2021/08/27 00:17:12;;;;;;;5.77;3.77;;;13.80;99.90;;;;;;5068771;28;20621;-92
2021/08/27 00:19:39;;;;;;;6.03;3.57;;;13.80;99.90;;;;;;5072382;28;20655;-94
2021/08/27 00:22:06;;;;;;;6.73;3.87;;;13.80;99.90;;;;;;5072786;28;20637;-92
2021/08/27 00:24:33;;;;;;;6.33;4.87;;;13.80;99.90;;;;;;5066633;28;20768;-94
2021/08/27 00:27:00;;;;;;;5.97;4.00;;;13.80;99.90;;;;;;5070727;28;21208;-93
2021/08/27 00:29:29;;;;;;;4.03;3.47;;;13.90;99.90;;;;;;5070430;28;20641;-93
2021/08/27 00:31:58;;;;;;;4.63;4.13;;;13.90;99.90;;;;;;5069435;28;20629;-94
2021/08/27 00:34:24;;;;;;;3.13;2.70;;;13.90;99.90;;;;;;5069683;28;21058;-93
2021/08/27 00:36:51;;;;;;;5.40;4.10;;;13.90;99.90;;;;;;5070919;28;20598;-94
2021/08/27 00:39:18;;;;;;;5.70;4.37;;;13.90;99.90;;;;;;5070338;28;20962;-92
2021/08/27 00:41:45;;;;;;;5.07;4.50;;;14.00;99.90;;;;;;5069370;28;20629;-91
2021/08/27 00:44:12;;;;;;;4.90;3.87;;;14.00;99.90;;;;;;5071938;28;20623;-91
2021/08/27 00:46:40;;;;;;;5.40;3.67;;;14.00;99.90;;;;;;5072058;28;21227;-93
2021/08/27 00:49:08;;;;;;;8.43;4.43;;;14.00;99.90;;;;;;5071308;28;20636;-91
2021/08/27 00:51:36;;;;;;;8.43;3.67;;;14.00;99.90;;;;;;5074402;28;20695;-93
2021/08/27 00:54:03;;;;;;;7.20;4.30;;;14.10;99.90;;;;;;5079414;28;20613;-91
2021/08/27 00:56:30;;;;;;;5.77;3.90;;;14.10;99.90;;;;;;5076554;28;20979;-92
2021/08/27 00:58:59;;;;;;;5.23;3.73;;;14.20;99.90;;;;;;5071907;28;20636;-91
2021/08/27 01:01:26;;;;;;;6.77;4.57;;;14.20;99.90;;;;;;5069544;28;20655;-91
2021/08/27 01:03:53;;;;;;;6.50;3.67;;;14.20;99.90;;;;;;5070673;28;20682;-93
2021/08/27 01:06:35;;;;;;;8.70;4.70;;;14.20;99.90;;;;;;5072743;28;20655;-93
2021/08/27 01:09:04;;;;;;;6.43;3.90;;;14.20;99.90;;;;;;5074736;28;20636;-93
2021/08/27 01:11:35;;;;;;;4.93;4.43;;;14.10;99.90;;;;;;5077945;28;20644;-93
2021/08/27 01:14:05;;;;;;;7.30;6.17;;;14.10;99.90;;;;;;5074305;28;20616;-91
2021/08/27 01:16:41;;;;;;;5.40;4.90;;;14.20;99.90;;;;;;5072495;28;20638;-94
2021/08/27 01:19:50;;;;;;;7.57;5.10;;;14.20;99.90;;;;;;5078925;28;20639;-95
2021/08/27 01:22:39;;;;;;;7.20;5.00;;;14.10;99.90;;;;;;5073817;28;20621;-94
2021/08/27 01:25:08;;;;;;;7.10;4.60;;;13.90;99.90;;;;;;5072963;28;20578;-93
2021/08/27 01:27:39;;;;;;;6.50;4.30;;;13.80;99.90;;;;;;5075875;28;20664;-94
2021/08/27 01:30:10;;;;;;;8.43;5.10;;;13.80;99.90;;;;;;5073795;28;20676;-93
2021/08/27 01:32:46;;;;;;;5.90;4.50;;;13.80;99.90;;;;;;5074089;28;21001;-94
2021/08/27 01:35:16;;;;;;;5.73;5.20;;;13.80;99.90;;;;;;5080201;28;20617;-93
2021/08/27 01:37:48;;;;;;;5.80;4.77;;;13.70;99.90;;;;;;5068518;28;20645;-94
2021/08/27 01:40:17;;;;;;;5.00;4.37;;;13.60;99.90;;;;;;5074616;28;20663;-93
2021/08/27 01:42:47;;;;;;;7.57;4.30;;;13.60;99.90;;;;;;5074670;28;20644;-94
2021/08/27 01:45:15;;;;;;;8.47;5.07;;;13.60;99.90;;;;;;5069969;28;20651;-92
2021/08/27 01:47:43;;;;;;;7.50;4.77;;;13.60;99.90;;;;;;5066933;28;20653;-93
2021/08/27 01:50:13;;;;;;;9.27;5.47;;;13.60;99.90;;;;;;5075500;28;20670;-92
2021/08/27 01:52:42;;;;;;;7.60;5.40;;;13.60;99.90;;;;;;5075283;28;20656;-91
2021/08/27 01:55:12;;;;;;;7.67;6.00;;;13.60;99.90;;;;;;5075732;28;20655;-93
2021/08/27 01:57:39;;;;;;;6.57;5.00;;;13.50;99.90;;;;;;5072787;28;20617;-92
2021/08/27 02:00:09;;;;;;;6.10;5.50;;;13.50;99.90;;;;;;5067634;28;20751;-93
2021/08/27 02:02:36;;;;;;;5.00;4.60;;;13.60;99.90;;;;;;5079001;28;20988;-91
2021/08/27 02:05:05;;;;;;;6.50;5.13;;;13.50;99.90;;;;;;5077075;28;20635;-92
2021/08/27 02:07:32;;;;;;;5.43;4.77;;;13.50;99.90;;;;;;5066849;28;21187;-91
2021/08/27 02:10:02;;;;;;;5.93;5.30;;;13.60;99.90;;;;;;5071087;28;20997;-92
2021/08/27 02:12:30;;;;;;;7.37;4.50;;;13.60;99.90;;;;;;5064784;28;21034;-92
2021/08/27 02:14:58;;;;;;;5.93;5.33;;;13.60;99.90;;;;;;5076811;28;20640;-93
2021/08/27 02:17:26;;;;;;;6.20;5.70;;;13.60;99.90;;;;;;5072450;28;21385;-92
2021/08/27 02:19:54;;;;;;;6.07;4.70;;;13.50;99.90;;;;;;5074448;28;20656;-93
2021/08/27 02:22:23;;;;;;;7.77;5.63;;;13.60;99.90;;;;;;5075830;28;20629;-92
2021/08/27 02:24:56;;;;;;;6.63;4.90;;;13.60;99.90;;;;;;5075866;28;20620;-93
2021/08/27 02:27:25;;;;;;;6.83;5.73;;;13.60;99.90;;;;;;5078571;28;20663;-91
2021/08/27 02:29:55;;;;;;;6.00;4.73;;;13.60;99.90;;;;;;5074640;28;20660;-94
2021/08/27 02:32:26;;;;;;;4.97;4.47;;;13.60;99.90;;;;;;5075737;28;20624;-91
2021/08/27 02:34:58;;;;;;;5.93;4.60;;;13.60;99.90;;;;;;5073870;28;20617;-92
2021/08/27 02:37:29;;;;;;;5.50;5.00;;;13.60;99.90;;;;;;5074930;28;20632;-92
2021/08/27 02:39:57;;;;;;;7.30;5.00;;;13.60;99.90;;;;;;5072109;28;20684;-91
2021/08/27 02:42:27;;;;;;;5.77;5.20;;;13.60;99.90;;;;;;5078259;28;20633;-92
2021/08/27 02:44:54;;;;;;;5.80;5.07;;;13.60;99.90;;;;;;5074982;28;20730;-92
2021/08/27 02:47:22;;;;;;;7.57;5.50;;;13.50;99.90;;;;;;5074376;28;20667;-93
2021/08/27 02:49:48;;;;;;;9.50;5.43;;;13.50;99.90;;;;;;5078184;28;20660;-92
2021/08/27 02:52:23;;;;;;;5.80;5.30;;;13.60;99.90;;;;;;5070707;28;20634;-92
2021/08/27 02:55:03;;;;;;;9.53;5.30;;;13.50;99.90;;;;;;5074726;28;20648;-91
2021/08/27 02:57:46;;;;;;;7.00;4.20;;;13.50;99.90;;;;;;5078073;28;21167;-91
2021/08/27 03:00:14;;;;;;;9.10;5.00;;;13.60;99.90;;;;;;5076762;28;21431;-92
2021/08/27 03:02:42;;;;;;;6.80;4.90;;;13.50;99.90;;;;;;5083712;28;20732;-92
2021/08/27 03:05:13;;;;;;;5.00;4.40;;;13.60;99.90;;;;;;5078098;28;20649;-92
2021/08/27 03:07:47;;;;;;;7.83;4.90;;;13.60;99.90;;;;;;5072335;28;20710;-91
2021/08/27 03:10:17;;;;;;;6.37;5.10;;;13.70;99.90;;;;;;5077189;28;20672;-93
2021/08/27 03:12:51;;;;;;;6.60;4.93;;;13.70;99.90;;;;;;5077280;28;20639;-93
2021/08/27 03:15:29;;;;;;;6.10;5.40;;;13.60;99.90;;;;;;5073325;28;20712;-92
2021/08/27 03:18:02;;;;;;;6.67;4.50;;;13.60;99.90;;;;;;5076146;28;20645;-92
2021/08/27 03:20:40;;;;;;;6.03;4.50;;;13.50;99.90;;;;;;5069493;28;20656;-91
2021/08/27 03:23:11;;;;;;;9.17;4.97;;;13.50;99.90;;;;;;5075998;28;21175;-95
2021/08/27 03:25:41;;;;;;;6.13;5.30;;;13.50;99.90;;;;;;5074427;28;20648;-94
2021/08/27 03:28:13;;;;;;;8.20;5.70;;;13.50;99.90;;;;;;5072906;28;20756;-94
2021/08/27 03:30:43;;;;;;;8.10;4.93;;;13.50;99.90;;;;;;5075059;28;20661;-92
2021/08/27 03:33:12;;;;;;;6.17;5.27;;;13.50;99.90;;;;;;5089091;28;20636;-92
2021/08/27 03:35:39;;;;;;;6.63;4.90;;;13.50;99.90;;;;;;5090977;28;20617;-93
2021/08/27 03:38:09;;;;;;;6.67;6.03;;;13.50;99.90;;;;;;5076480;28;20642;-92
2021/08/27 03:40:37;;;;;;;7.93;5.00;;;13.50;99.90;;;;;;5072415;28;20704;-92
2021/08/27 03:43:05;;;;;;;5.33;4.53;;;13.50;99.90;;;;;;5074368;28;20995;-92
2021/08/27 03:45:37;;;;;;;6.70;4.83;;;13.50;99.90;;;;;;5073541;28;20619;-93
2021/08/27 03:48:04;;;;;;;5.73;4.80;;;13.50;99.90;;;;;;5073632;28;20649;-93
2021/08/27 03:50:38;;;;;;;5.50;5.00;;;13.50;99.90;;;;;;5086164;28;20672;-96
2021/08/27 03:53:08;;;;;;;5.20;4.80;;;13.50;99.90;;;;;;5081988;28;20732;-96
2021/08/27 03:59:00;;;;;;;9.57;5.27;;;13.50;99.90;;;;;;5084211;28;20584;-95
2021/08/27 04:01:29;;;;;;;7.40;4.80;;;13.50;99.90;;;;;;5091796;28;20667;-94
2021/08/27 04:04:02;;;;;;;5.33;4.70;;;13.50;99.90;;;;;;5081339;28;20665;-95
2021/08/27 04:06:41;;;;;;;6.80;5.80;;;13.50;99.90;;;;;;5078214;28;20637;-94
2021/08/27 04:09:09;;;;;;;7.50;6.13;;;13.70;99.90;;;;;;5076296;28;20643;-96
2021/08/27 04:11:39;;;;;;;6.40;5.90;;;13.60;99.90;;;;;;5080787;28;20724;-96
2021/08/27 04:14:12;;;;;;;9.20;6.93;;;13.60;99.90;;;;;;5079176;28;21005;-96
2021/08/27 04:16:54;;;;;;;7.27;6.67;;;13.60;99.90;;;;;;5087576;28;20628;-96
2021/08/27 04:19:21;;;;;;;7.50;6.83;;;13.60;99.90;;;;;;5077165;28;20711;-94
2021/08/27 04:21:48;;;;;;;9.47;7.97;;;13.60;99.90;;;;;;5083083;28;20639;-94
2021/08/27 04:24:15;;;;;;;12.73;9.23;;;13.60;99.90;;;;;;5085413;28;20723;-95
2021/08/27 04:26:42;;;;;;;10.33;9.23;;;13.70;99.90;;;;;;5079112;28;20757;-94
2021/08/27 04:29:11;;;;;;;14.80;9.80;;;13.60;99.90;;;;;;5082234;28;20640;-94
2021/08/27 04:31:44;;;;;;;11.60;10.60;;;13.60;99.90;;;;;;5082762;28;20628;-94
2021/08/27 04:34:10;;;;;;;11.03;9.57;;;13.70;99.90;;;;;;5081067;28;20633;-95
2021/08/27 04:36:38;;;;;;;10.83;9.83;;;13.60;99.90;;;;;;5079843;28;20657;-93
2021/08/27 04:39:05;;;;;;;10.80;9.80;;;13.60;99.90;;;;;;5074032;28;20636;-93
2021/08/27 04:41:32;;;;;;;10.70;9.63;;;13.60;99.90;;;;;;5078911;28;20659;-94
2021/08/27 04:43:59;;;;;;;10.30;9.43;;;13.70;99.90;;;;;;5079588;28;20998;-94
2021/08/27 04:46:26;;;;;;;10.67;9.77;;;13.60;99.90;;;;;;5084321;28;20664;-95
2021/08/27 04:48:55;;;;;;;10.50;9.50;;;13.60;99.90;;;;;;5081106;28;20659;-94
2021/08/27 04:51:22;;;;;;;9.70;8.80;;;13.60;99.90;;;;;;5079912;28;20667;-93
2021/08/27 04:53:49;;;;;;;8.70;7.90;;;13.60;99.90;;;;;;5071728;28;20592;-94
2021/08/27 04:56:16;;;;;;;10.20;9.30;;;13.50;99.90;;;;;;5091621;28;20692;-94
2021/08/27 04:58:43;;;;;;;8.93;8.10;;;13.50;99.90;;;;;;5081041;28;20621;-93
2021/08/27 05:01:21;;;;;;;11.60;8.90;;;13.40;99.90;;;;;;5079905;28;20656;-94
2021/08/27 05:03:50;;;;;;;9.67;8.67;;;13.40;99.90;;;;;;5076076;28;20725;-94
2021/08/27 05:06:18;;;;;;;9.37;8.50;;;13.40;99.90;;;;;;5076933;28;20629;-94
2021/08/27 05:08:45;;;;;;;8.30;7.50;;;13.30;99.90;;;;;;5080695;28;20651;-94
2021/08/27 05:11:12;;;;;;;9.00;8.10;;;13.40;99.90;;;;;;5087921;28;20670;-94
2021/08/27 05:13:39;;;;;;;8.73;7.60;;;13.40;99.90;;;;;;5082709;28;20635;-94
2021/08/27 05:16:06;;;;;;;8.13;7.50;;;13.40;99.90;;;;;;5081832;28;20635;-94
2021/08/27 05:18:34;;;;;;;9.60;8.10;;;13.50;99.90;;;;;;5078413;28;21368;-95
2021/08/27 05:21:01;;;;;;;9.37;8.40;;;13.40;99.90;;;;;;5086800;28;20670;-95
2021/08/27 05:23:29;;;;;;;9.97;8.13;;;13.40;99.90;;;;;;5076073;28;20726;-94
2021/08/27 05:25:56;;;;;;;9.27;8.40;;;13.40;99.90;;;;;;5082772;28;20628;-93
2021/08/27 05:28:24;;;;;;;8.70;8.00;;;13.40;99.90;;;;;;5075678;28;20657;-95
2021/08/27 05:30:51;;;;;;;11.27;8.47;;;13.40;99.90;;;;;;5075479;28;21119;-95
2021/08/27 05:33:18;;;;;;;9.57;8.60;;;13.50;99.90;;;;;;5079516;28;21179;-95
2021/08/27 05:35:45;;;;;;;10.60;9.60;;;13.60;99.90;;;;;;5081181;28;20743;-95
2021/08/27 05:38:12;;;;;;;12.50;8.93;;;13.60;99.90;;;;;;5078139;28;20629;-94
2021/08/27 05:40:43;;;;;;;10.07;9.00;;;13.70;99.90;;;;;;5082373;28;20652;-92
2021/08/27 05:43:10;;;;;;;9.80;8.90;;;13.70;99.90;;;;;;5073786;28;20636;-93
2021/08/27 05:45:37;;;;;;;9.50;8.60;;;13.70;99.90;;;;;;5078657;28;20629;-92
2021/08/27 05:48:05;;;;;;;8.80;8.00;;;13.70;99.90;;;;;;5076155;28;20692;-91
2021/08/27 05:50:33;;;;;;;9.60;8.13;;;13.80;99.90;;;;;;5074364;28;20673;-93
2021/08/27 05:53:01;;;;;;;9.83;9.03;;;13.90;99.90;;;;;;5076186;28;20665;-94
2021/08/27 05:55:30;;;;;;;10.33;9.30;;;14.00;99.90;;;;;;5080846;28;21234;-95
2021/08/27 05:57:59;;;;;;;11.57;10.37;;;14.00;99.90;;;;;;5075781;28;20644;-94
2021/08/27 06:00:28;;;;;;;10.83;9.83;;;14.10;99.90;;;;;;5082395;28;20656;-96
2021/08/27 06:02:55;;;;;;;11.60;10.43;;;14.00;99.90;;;;;;5079293;28;20668;-95
2021/08/27 06:05:22;;;;;;;12.00;11.00;;;14.00;99.90;;;;;;5076386;28;20627;-96
2021/08/27 06:07:49;;;;;;;12.00;11.10;;;13.90;99.90;;;;;;5075218;28;20649;-96
2021/08/27 06:10:16;;;;;;;12.87;11.50;;;13.90;99.90;;;;;;5081965;28;20656;-96
2021/08/27 06:12:43;;;;;;;12.97;11.67;;;13.80;99.90;;;;;;5077543;28;20962;-96
2021/08/27 06:15:14;;;;;;;13.20;11.63;;;13.90;99.90;;;;;;5083067;28;20640;-96
2021/08/27 06:17:46;;;;;;;12.53;11.63;;;13.90;99.90;;;;;;5081788;28;20639;-95
2021/08/27 06:20:13;;;;;;;12.30;11.10;;;14.00;99.90;;;;;;5077937;28;20696;-96
2021/08/27 06:22:47;;;;;;;10.50;9.60;;;13.90;99.90;;;;;;5081415;28;20660;-96
2021/08/27 06:25:15;;;;;;;10.97;9.97;;;13.90;99.90;;;;;;5080307;28;21072;-94
2021/08/27 06:27:42;;;;;;;10.80;9.80;;;13.90;99.90;;;;;;5089640;28;21264;-95
2021/08/27 06:30:13;;;;;;;10.67;9.60;;;14.00;99.90;;;;;;5083549;28;20660;-94
2021/08/27 06:32:40;;;;;;;9.83;9.00;;;14.00;99.90;;;;;;5080619;28;20727;-95
2021/08/27 06:35:08;;;;;;;9.27;8.40;;;14.10;99.90;;;;;;5080412;28;20629;-95
2021/08/27 06:40:20;;;;;;;8.73;8.00;;;14.40;99.90;;;;;;5088360;28;20846;-96
2021/08/27 06:42:48;;;;;;;8.43;7.73;;;14.60;99.90;;;;;;5082698;28;20724;-96
2021/08/27 06:45:17;;;;;;;7.00;6.40;;;14.80;99.90;;;;;;5079068;28;20636;-96
2021/08/27 06:47:44;;;;;;;7.37;6.77;;;14.70;99.90;;;;;;5076901;28;20744;-95
2021/08/27 06:50:17;;;;;;;7.53;6.50;;;14.70;99.90;;;;;;5081194;28;20668;-96
2021/08/27 06:52:52;;;;;;;7.53;6.10;;;15.00;99.90;;;;;;5079351;28;20697;-96
2021/08/27 06:55:23;;;;;;;7.83;6.63;;;15.10;99.90;;;;;;5083850;28;20644;-96
2021/08/27 06:57:52;;;;;;;6.87;6.17;;;15.00;99.90;;;;;;5079036;28;20680;-95
2021/08/27 07:00:20;;;;;;;5.73;5.10;;;15.10;99.90;;;;;;5081306;28;20652;-96
2021/08/27 07:02:47;;;;;;;8.07;5.77;;;15.30;99.90;;;;;;5079812;28;20708;-96
2021/08/27 07:05:15;;;;;;;6.87;5.60;;;15.30;99.90;;;;;;5083164;28;20688;-95
2021/08/27 07:07:42;;;;;;;4.63;4.13;;;15.40;99.90;;;;;;5084626;28;20650;-95
2021/08/27 07:10:10;;;;;;;5.53;5.10;;;15.60;99.90;;;;;;5092242;28;20683;-94
2021/08/27 07:12:37;;;;;;;6.43;5.73;;;16.00;99.90;;;;;;5089937;28;20740;-94
2021/08/27 07:15:06;;;;;;;7.37;5.80;;;16.20;99.90;;;;;;5085321;28;21191;-96
2021/08/27 07:17:35;;;;;;;8.03;5.10;;;16.10;99.90;;;;;;5079990;28;20657;-96
2021/08/27 07:20:02;;;;;;;6.57;5.60;;;16.40;99.90;;;;;;5091901;28;20766;-96
2021/08/27 07:22:30;;;;;;;5.13;4.63;;;16.20;99.90;;;;;;5084613;28;20680;-96
2021/08/27 07:24:57;;;;;;;5.80;4.90;;;15.90;99.90;;;;;;5075671;28;20625;-96
2021/08/27 07:27:24;;;;;;;5.30;4.60;;;15.70;99.90;;;;;;5077554;28;20629;-95
2021/08/27 07:29:51;;;;;;;6.30;4.43;;;15.60;99.90;;;;;;5075853;28;20648;-95
2021/08/27 07:32:18;;;;;;;5.00;4.50;;;15.60;99.90;;;;;;5073561;28;20663;-95
2021/08/27 07:34:50;;;;;;;4.53;4.20;;;15.90;99.90;;;;;;5077986;28;20971;-96
2021/08/27 07:37:18;;;;;;;4.43;4.13;;;16.40;99.90;;;;;;5081905;28;20629;-96
2021/08/27 07:39:45;;;;;;;4.00;3.50;;;16.40;99.90;;;;;;5077724;28;20659;-96
2021/08/27 07:42:12;;;;;;;4.20;3.40;;;16.50;99.90;;;;;;5076367;28;20738;-95
2021/08/27 07:44:46;;;;;;;3.50;2.40;;;17.00;99.90;;;;;;5079096;28;20736;-96
2021/08/27 07:47:17;;;;;;;3.77;2.20;;;17.20;99.90;;;;;;5076235;28;20636;-95
2021/08/27 07:49:46;;;;;;;4.37;2.20;;;17.20;99.90;;;;;;5081248;28;20664;-95
2021/08/27 07:52:21;;;;;;;2.70;2.50;;;17.30;99.90;;;;;;5075485;28;21012;-95
2021/08/27 07:54:48;;;;;;;3.97;2.00;;;17.20;99.90;;;;;;5076089;28;20621;-95
2021/08/27 07:57:23;;;;;;;5.00;2.80;;;17.50;99.90;;;;;;5081760;28;20624;-96
2021/08/27 08:02:40;;;;;;;2.83;2.50;;;17.30;99.90;;;;;;5096332;28;20629;-95
2021/08/27 08:05:14;;;;;;;3.73;2.30;;;16.90;99.90;;;;;;5093536;28;20621;-96
2021/08/27 08:10:50;;;;;;;3.37;2.63;;;16.20;99.90;;;;;;5087240;22;20677;-96
2021/08/27 08:13:43;;;;;;;5.03;2.03;;;16.60;99.90;;;;;;5070592;28;20672;-96
2021/08/27 08:16:15;;;;;;;4.73;2.60;;;16.80;99.90;;;;;;5060976;28;20708;-96
2021/08/27 08:18:54;;;;;;;3.10;2.30;;;16.80;99.90;;;;;;5077480;28;20666;-96
2021/08/27 08:21:50;;;;;;;3.50;2.57;;;17.00;99.90;;;;;;5060832;28;20625;-96
2021/08/27 08:24:22;;;;;;;3.00;1.97;;;17.20;99.90;;;;;;5070013;28;20634;-96
2021/08/27 08:27:18;;;;;;;6.53;2.47;;;17.20;99.90;;;;;;5075832;28;20645;-96
2021/08/27 08:29:49;;;;;;;2.33;2.13;;;16.90;99.90;;;;;;5073352;28;20670;-96
2021/08/27 08:32:47;;;;;;;2.50;2.30;;;17.00;99.90;;;;;;5076390;28;20646;-96
2021/08/27 08:35:50;;;;;;;7.27;3.23;;;17.40;99.90;;;;;;5076667;28;20697;-96
2021/08/27 08:38:23;;;;;;;5.03;1.60;;;17.60;99.90;;;;;;5074014;28;20635;-96
2021/08/27 08:41:11;;;;;;;4.30;1.67;;;17.90;99.90;;;;;;5075250;28;20618;-96
2021/08/27 08:46:30;;;;;;;3.33;2.17;;;18.30;99.90;;;;;;5077314;28;20636;-96
2021/08/27 08:49:03;;;;;;;3.10;1.60;;;18.00;99.90;;;;;;5067992;28;20654;-95
2021/08/27 08:51:32;;;;;;;2.00;1.80;;;18.00;99.90;;;;;;5076662;28;20624;-96
2021/08/27 08:54:00;;;;;;;2.47;2.27;;;18.10;99.90;;;;;;5075500;28;20689;-95
2021/08/27 08:56:30;;;;;;;2.40;2.10;;;17.40;99.90;;;;;;5070081;28;20618;-96
2021/08/27 08:58:59;;;;;;;2.20;1.60;;;17.30;99.90;;;;;;5060042;28;20647;-92
2021/08/27 09:01:27;;;;;;;2.23;1.43;;;17.20;99.90;;;;;;5056171;28;20638;-96
2021/08/27 09:03:54;;;;;;;1.87;1.50;;;17.10;99.90;;;;;;5064195;28;20633;-94
2021/08/27 09:06:21;;;;;;;3.03;2.47;;;17.20;99.90;;;;;;5064266;28;20650;-94
2021/08/27 09:08:49;;;;;;;3.87;1.60;;;17.10;99.90;;;;;;5060755;28;20774;-93
2021/08/27 09:11:18;;;;;;;2.10;1.60;;;17.90;99.90;;;;;;5054986;28;20664;-93
2021/08/27 09:13:46;;;;;;;3.20;2.03;;;18.40;99.90;;;;;;5056694;28;20667;-94
2021/08/27 09:16:16;;;;;;;2.10;1.50;;;18.40;99.90;;;;;;5050304;28;20637;-94
2021/08/27 09:18:45;;;;;;;2.30;1.30;;;18.40;99.90;;;;;;5044903;28;20713;-94
2021/08/27 09:21:38;;;;;;;2.50;1.77;;;18.20;99.90;;;;;;5057761;28;20641;-94
2021/08/27 09:24:32;;;;;;;8.00;2.10;;;18.00;99.90;;;;;;5057144;28;20638;-94
2021/08/27 09:27:01;;;;;;;4.13;1.60;;;17.70;99.90;;;;;;5054058;28;20662;-93
2021/08/27 09:29:42;;;;;;;2.00;1.57;;;17.80;99.90;;;;;;5050812;28;20678;-92
2021/08/27 09:32:26;;;;;;;4.47;1.60;;;18.10;99.90;;;;;;5064039;28;20633;-95
2021/08/27 09:35:07;;;;;;;3.50;1.50;;;17.60;99.90;;;;;;5059000;28;20643;-95
2021/08/27 09:37:44;;;;;;;2.67;1.40;;;17.40;99.90;;;;;;5051889;28;20657;-94
2021/08/27 09:40:13;;;;;;;1.73;1.33;;;17.20;99.90;;;;;;5053537;28;20692;-94
2021/08/27 09:42:41;;;;;;;2.17;1.63;;;17.50;99.90;;;;;;5056733;28;20696;-94
2021/08/27 09:45:12;;;;;;;1.70;1.37;;;18.10;99.90;;;;;;5050567;28;20630;-94
2021/08/27 09:47:57;;;;;;;3.23;1.40;;;17.90;99.90;;;;;;5055171;28;20626;-93
2021/08/27 09:50:30;;;;;;;1.83;1.33;;;18.00;99.90;;;;;;5051076;28;20650;-94
2021/08/27 09:53:02;;;;;;;1.20;1.10;;;18.40;99.90;;;;;;5051547;28;20629;-94
2021/08/27 09:55:34;;;;;;;2.10;0.90;;;19.10;99.90;;;;;;5047901;28;20625;-94
2021/08/27 09:58:06;;;;;;;2.47;1.37;;;19.40;99.90;;;;;;5050854;28;20593;-95
2021/08/27 10:00:35;;;;;;;1.67;1.50;;;19.80;99.90;;;;;;5049330;28;20617;-94
2021/08/27 10:03:21;;;;;;;3.00;1.23;;;20.60;99.90;;;;;;5048325;28;20643;-95
2021/08/27 10:05:50;;;;;;;1.93;1.50;;;20.50;99.90;;;;;;5047252;28;20717;-94
2021/08/27 10:08:19;;;;;;;4.10;1.40;;;19.70;99.90;;;;;;5040327;28;20705;-95
2021/08/27 10:10:49;;;;;;;1.43;1.27;;;19.00;99.90;;;;;;5041842;28;20645;-94
2021/08/27 10:13:16;;;;;;;4.07;1.27;;;18.80;99.90;;;;;;5049672;28;20638;-94
2021/08/27 10:15:46;;;;;;;2.60;1.97;;;18.50;99.90;;;;;;5046105;28;20631;-94
2021/08/27 10:18:13;;;;;;;1.80;1.27;;;18.50;99.90;;;;;;5054789;28;21033;-95
2021/08/27 10:20:44;;;;;;;1.90;1.50;;;18.20;99.90;;;;;;5049187;28;20622;-93
2021/08/27 10:23:17;;;;;;;5.57;2.20;;;18.30;99.90;;;;;;5043088;28;20626;-94
2021/08/27 10:25:45;;;;;;;2.80;1.50;;;18.50;99.90;;;;;;5043896;28;20639;-96
2021/08/27 10:28:13;;;;;;;4.57;1.53;;;18.90;99.90;;;;;;5045093;28;21159;-94
2021/08/27 10:31:02;;;;;;;1.60;1.50;;;19.20;99.90;;;;;;5046457;28;21091;-95
2021/08/27 10:33:59;;;;;;;4.33;1.70;;;18.50;99.90;;;;;;5034699;28;20633;-95
2021/08/27 10:36:50;;;;;;;1.83;1.40;;;18.30;99.90;;;;;;5050215;28;20730;-95
2021/08/27 10:39:48;;;;;;;3.73;1.67;;;18.10;99.90;;;;;;5039736;28;20645;-95
2021/08/27 10:42:52;;;;;;;1.43;1.30;;;18.10;99.90;;;;;;5045682;28;20641;-95
2021/08/27 10:45:53;;;;;;;4.37;1.47;;;17.90;99.90;;;;;;5053631;28;20653;-94
2021/08/27 10:48:24;;;;;;;3.90;2.00;;;17.80;99.90;;;;;;5042181;28;20693;-95
2021/08/27 10:50:54;;;;;;;2.90;1.60;;;18.90;99.90;;;;;;5045982;28;20662;-94
2021/08/27 10:53:41;;;;;;;2.07;1.50;;;19.50;99.90;;;;;;5048971;28;20624;-94
2021/08/27 10:56:10;;;;;;;2.90;1.40;;;20.30;98.60;;;;;;5040838;28;20634;-95
2021/08/27 10:58:40;;;;;;;3.27;1.53;;;20.20;97.20;;;;;;5050325;28;20692;-95
2021/08/27 11:01:25;;;;;;;5.70;1.63;;;20.10;98.70;;;;;;5056860;28;21310;-96
2021/08/27 11:04:15;;;;;;;1.80;1.23;;;19.50;99.10;;;;;;5058235;28;20724;-95
2021/08/27 11:06:53;;;;;;;1.40;1.10;;;18.80;98.90;;;;;;5039351;28;20633;-95
2021/08/27 11:09:25;;;;;;;3.17;1.80;;;18.60;99.90;;;;;;5047028;28;20684;-95
2021/08/27 11:17:40;;;;;;;3.63;2.20;;;17.90;99.90;;;;;;5052709;28;20610;-92
2021/08/27 11:20:08;;;;;;;5.17;1.97;;;17.60;99.90;;;;;;5039524;28;20781;-94
2021/08/27 11:22:38;;;;;;;2.60;1.70;;;17.80;99.90;;;;;;5049793;28;20634;-95
2021/08/27 11:25:23;;;;;;;2.23;1.80;;;17.80;99.90;;;;;;5043398;28;20630;-95
2021/08/27 11:28:16;;;;;;;2.27;2.03;;;17.80;99.90;;;;;;5055408;28;20652;-96
2021/08/27 11:30:48;;;;;;;2.90;2.00;;;17.80;99.90;;;;;;5062581;28;20716;-96
2021/08/27 11:33:51;;;;;;;3.27;2.00;;;17.70;99.90;;;;;;5063979;28;20685;-96
2021/08/27 11:39:08;;;;;;;5.13;1.80;;;17.40;99.90;;;;;;5071083;28;20645;-96
2021/08/27 11:41:38;;;;;;;2.43;2.23;;;17.50;99.90;;;;;;5073852;28;20628;-96
2021/08/27 11:44:15;;;;;;;4.00;1.67;;;17.60;99.90;;;;;;5056779;28;20998;-95
2021/08/27 11:46:48;;;;;;;4.23;2.10;;;17.70;99.90;;;;;;5056491;28;20656;-96
2021/08/27 11:49:36;;;;;;;2.97;2.03;;;17.70;99.90;;;;;;5060685;28;20757;-96
2021/08/27 11:52:19;;;;;;;3.43;1.97;;;17.90;99.90;;;;;;5054723;28;20644;-95
2021/08/27 11:54:48;;;;;;;7.63;2.40;;;18.00;99.90;;;;;;5053075;28;20627;-95
2021/08/27 11:57:47;;;;;;;3.50;2.03;;;17.90;99.90;;;;;;5057543;28;21292;-95
2021/08/27 12:00:15;;;;;;;4.50;2.30;;;18.10;99.90;;;;;;5050820;28;20757;-96
2021/08/27 12:02:42;;;;;;;2.87;2.13;;;18.30;99.90;;;;;;5060428;28;20874;-96
2021/08/27 12:05:12;;;;;;;4.43;2.83;;;18.50;99.90;;;;;;5048643;28;20645;-96
2021/08/27 12:07:51;;;;;;;2.83;2.40;;;19.30;99.90;;;;;;5055429;28;20632;-95
2021/08/27 12:10:18;;;;;;;3.03;2.10;;;19.30;99.90;;;;;;5057310;28;20776;-93
2021/08/27 12:12:50;;;;;;;2.90;1.90;;;18.70;99.90;;;;;;5049851;28;20648;-94
2021/08/27 12:15:20;;;;;;;2.50;2.30;;;18.40;99.90;;;;;;5050427;28;20634;-94
2021/08/27 12:17:54;;;;;;;2.60;2.10;;;18.20;99.90;;;;;;5045834;28;20610;-93
2021/08/27 12:20:23;;;;;;;2.47;2.13;;;17.80;99.90;;;;;;5056720;28;20688;-93
2021/08/27 12:22:54;;;;;;;2.40;1.83;;;17.50;99.90;;;;;;5056353;28;20618;-93
2021/08/27 12:25:28;;;;;;;2.53;2.20;;;17.10;99.90;;;;;;5056830;28;20660;-94
2021/08/27 12:27:59;;;;;;;3.70;2.40;;;17.10;99.90;;;;;;5059687;28;20713;-93
2021/08/27 12:30:27;;;;;;;7.60;2.10;;;17.20;99.90;;;;;;5055689;28;21134;-93
2021/08/27 12:32:56;;;;;;;5.77;2.60;;;17.20;99.90;;;;;;5054152;28;20621;-92
2021/08/27 12:35:34;;;;;;;5.43;2.40;;;17.50;99.90;;;;;;5046756;28;20660;-95
2021/08/27 12:38:01;;;;;;;3.27;2.20;;;17.60;99.90;;;;;;5050032;28;20631;-95
2021/08/27 12:40:30;;;;;;;4.90;2.30;;;17.60;99.90;;;;;;5049366;28;20609;-94
2021/08/27 12:43:01;;;;;;;3.80;2.43;;;17.70;99.90;;;;;;5045968;28;20700;-94
2021/08/27 12:45:29;;;;;;;3.37;2.40;;;17.50;99.90;;;;;;5054223;28;20653;-94
2021/08/27 12:48:06;;;;;;;3.20;2.37;;;17.60;99.90;;;;;;5055563;28;20613;-95
2021/08/27 12:50:47;;;;;;;3.80;1.80;;;17.50;99.90;;;;;;5059981;28;20685;-94
2021/08/27 12:53:15;;;;;;;3.93;1.60;;;17.80;99.90;;;;;;5050562;28;20621;-92
2021/08/27 12:55:41;;;;;;;2.10;1.70;;;17.90;99.90;;;;;;5047225;28;20641;-93
2021/08/27 12:58:11;;;;;;;4.80;1.60;;;18.10;99.90;;;;;;5050454;28;20718;-93
2021/08/27 13:00:38;;;;;;;4.27;1.83;;;19.30;99.90;;;;;;5051007;28;20625;-94
2021/08/27 13:03:11;;;;;;;2.50;1.70;;;19.90;99.90;;;;;;5061636;28;20701;-94
2021/08/27 13:05:40;;;;;;;2.60;1.50;;;21.60;99.90;;;;;;5058913;28;20740;-94
2021/08/27 13:08:10;;;;;;;1.87;1.53;;;21.90;96.00;;;;;;5056772;28;20705;-94
2021/08/27 13:10:38;;;;;;;2.40;1.60;;;23.10;95.60;;;;;;5058571;28;20661;-94
2021/08/27 13:13:46;;;;;;;2.20;1.37;;;24.00;93.50;;;;;;5061761;28;20630;-93
2021/08/27 13:16:16;;;;;;;2.90;1.07;;;24.00;88.80;;;;;;5065135;28;20644;-93
2021/08/27 13:18:48;;;;;;;2.20;1.07;;;24.80;86.70;;;;;;5058815;28;20653;-93
2021/08/27 13:21:18;;;;;;;1.73;1.37;;;25.20;82.80;;;;;;5055633;28;20621;-93
2021/08/27 13:23:45;;;;;;;1.67;1.10;;;24.80;81.60;;;;;;5054303;28;20622;-94
2021/08/27 13:26:22;;;;;;;2.93;1.23;;;24.90;80.00;;;;;;5048263;28;20629;-93
2021/08/27 13:28:49;;;;;;;1.90;1.00;;;24.60;79.40;;;;;;5059458;28;21654;-93
2021/08/27 13:31:22;;;;;;;2.50;1.17;;;24.40;80.70;;;;;;5046160;28;20618;-93
2021/08/27 13:33:49;;;;;;;2.67;1.50;;;25.10;79.50;;;;;;5052390;28;20726;-93